sensor_id;sensor_type;location;lat;lon;timestamp;temperature;humidity
67364;HTU21D;54250;45.572;38.086;2023-04-25T00:01:47;11.68;90.64
67364;HTU21D;54250;45.572;38.086;2023-04-25T00:04:13;11.67;90.73
67364;HTU21D;54250;45.572;38.086;2023-04-25T00:06:39;11.66;90.76
67364;HTU21D;54250;45.572;38.086;2023-04-25T00:09:06;11.68;90.74
67364;HTU21D;54250;45.572;38.086;2023-04-25T00:11:37;11.71;90.76
67364;HTU21D;54250;45.572;38.086;2023-04-25T00:14:04;11.71;90.80
67364;HTU21D;54250;45.572;38.086;2023-04-25T00:16:30;11.72;90.79
67364;HTU21D;54250;45.572;38.086;2023-04-25T00:18:59;11.70;90.90
67364;HTU21D;54250;45.572;38.086;2023-04-25T00:21:27;11.67;90.97
67364;HTU21D;54250;45.572;38.086;2023-04-25T00:23:54;11.66;90.99
67364;HTU21D;54250;45.572;38.086;2023-04-25T00:26:20;11.61;91.07
67364;HTU21D;54250;45.572;38.086;2023-04-25T00:28:47;11.59;91.15
67364;HTU21D;54250;45.572;38.086;2023-04-25T00:31:13;11.54;91.17
67364;HTU21D;54250;45.572;38.086;2023-04-25T00:33:39;11.49;91.46
67364;HTU21D;54250;45.572;38.086;2023-04-25T00:36:06;11.46;91.53
67364;HTU21D;54250;45.572;38.086;2023-04-25T00:38:32;11.41;91.78
67364;HTU21D;54250;45.572;38.086;2023-04-25T00:40:58;11.33;91.69
67364;HTU21D;54250;45.572;38.086;2023-04-25T00:43:26;11.28;91.82
67364;HTU21D;54250;45.572;38.086;2023-04-25T00:45:52;11.20;91.98
67364;HTU21D;54250;45.572;38.086;2023-04-25T00:48:22;11.15;92.27
67364;HTU21D;54250;45.572;38.086;2023-04-25T00:50:54;11.09;92.26
67364;HTU21D;54250;45.572;38.086;2023-04-25T00:53:21;11.09;92.41
67364;HTU21D;54250;45.572;38.086;2023-04-25T00:55:48;11.09;92.40
67364;HTU21D;54250;45.572;38.086;2023-04-25T00:58:20;11.13;92.21
67364;HTU21D;54250;45.572;38.086;2023-04-25T01:00:48;11.18;92.05
67364;HTU21D;54250;45.572;38.086;2023-04-25T01:03:16;11.29;91.92
67364;HTU21D;54250;45.572;38.086;2023-04-25T01:05:43;11.36;91.86
67364;HTU21D;54250;45.572;38.086;2023-04-25T01:08:09;11.40;91.85
67364;HTU21D;54250;45.572;38.086;2023-04-25T01:10:36;11.42;91.88
67364;HTU21D;54250;45.572;38.086;2023-04-25T01:13:03;11.46;91.89
67364;HTU21D;54250;45.572;38.086;2023-04-25T01:15:29;11.42;92.09
67364;HTU21D;54250;45.572;38.086;2023-04-25T01:17:56;11.39;92.30
67364;HTU21D;54250;45.572;38.086;2023-04-25T01:20:22;11.31;92.43
67364;HTU21D;54250;45.572;38.086;2023-04-25T01:22:50;11.25;92.58
67364;HTU21D;54250;45.572;38.086;2023-04-25T01:25:18;11.16;92.82
67364;HTU21D;54250;45.572;38.086;2023-04-25T01:27:45;11.10;92.85
67364;HTU21D;54250;45.572;38.086;2023-04-25T01:30:11;11.05;92.99
67364;HTU21D;54250;45.572;38.086;2023-04-25T01:32:40;11.00;92.98
67364;HTU21D;54250;45.572;38.086;2023-04-25T01:35:09;10.98;92.91
67364;HTU21D;54250;45.572;38.086;2023-04-25T01:37:45;10.98;92.83
67364;HTU21D;54250;45.572;38.086;2023-04-25T01:40:12;10.96;92.88
67364;HTU21D;54250;45.572;38.086;2023-04-25T01:42:41;10.96;92.86
67364;HTU21D;54250;45.572;38.086;2023-04-25T01:45:09;10.96;92.90
67364;HTU21D;54250;45.572;38.086;2023-04-25T01:47:37;10.96;92.85
67364;HTU21D;54250;45.572;38.086;2023-04-25T01:50:05;10.96;93.07
67364;HTU21D;54250;45.572;38.086;2023-04-25T01:52:32;10.95;93.06
67364;HTU21D;54250;45.572;38.086;2023-04-25T01:55:01;10.95;93.00
67364;HTU21D;54250;45.572;38.086;2023-04-25T01:57:32;10.94;93.01
67364;HTU21D;54250;45.572;38.086;2023-04-25T02:00:01;10.94;93.01
67364;HTU21D;54250;45.572;38.086;2023-04-25T02:02:40;10.94;93.01
67364;HTU21D;54250;45.572;38.086;2023-04-25T02:05:19;10.93;93.15
67364;HTU21D;54250;45.572;38.086;2023-04-25T02:07:47;10.93;93.24
67364;HTU21D;54250;45.572;38.086;2023-04-25T02:10:13;10.92;93.27
67364;HTU21D;54250;45.572;38.086;2023-04-25T02:13:00;10.90;93.33
67364;HTU21D;54250;45.572;38.086;2023-04-25T02:15:40;10.89;93.36
67364;HTU21D;54250;45.572;38.086;2023-04-25T02:18:18;10.89;93.34
67364;HTU21D;54250;45.572;38.086;2023-04-25T02:20:45;10.93;93.44
67364;HTU21D;54250;45.572;38.086;2023-04-25T02:23:11;10.93;93.37
67364;HTU21D;54250;45.572;38.086;2023-04-25T02:25:37;10.96;93.33
67364;HTU21D;54250;45.572;38.086;2023-04-25T02:28:03;10.95;93.31
67364;HTU21D;54250;45.572;38.086;2023-04-25T02:30:29;10.95;93.40
67364;HTU21D;54250;45.572;38.086;2023-04-25T02:32:55;10.96;93.39
67364;HTU21D;54250;45.572;38.086;2023-04-25T02:35:22;10.96;93.42
67364;HTU21D;54250;45.572;38.086;2023-04-25T02:37:48;10.95;93.36
67364;HTU21D;54250;45.572;38.086;2023-04-25T02:40:14;10.94;93.38
67364;HTU21D;54250;45.572;38.086;2023-04-25T02:42:40;10.97;93.33
67364;HTU21D;54250;45.572;38.086;2023-04-25T02:45:06;10.98;93.36
67364;HTU21D;54250;45.572;38.086;2023-04-25T02:47:32;10.97;93.40
67364;HTU21D;54250;45.572;38.086;2023-04-25T02:49:58;10.97;93.37
67364;HTU21D;54250;45.572;38.086;2023-04-25T02:52:24;10.99;93.38
67364;HTU21D;54250;45.572;38.086;2023-04-25T02:54:58;10.99;93.52
67364;HTU21D;54250;45.572;38.086;2023-04-25T02:57:26;11.01;93.46
67364;HTU21D;54250;45.572;38.086;2023-04-25T02:59:52;11.04;93.33
67364;HTU21D;54250;45.572;38.086;2023-04-25T03:02:18;11.05;93.29
67364;HTU21D;54250;45.572;38.086;2023-04-25T03:04:44;11.09;93.24
67364;HTU21D;54250;45.572;38.086;2023-04-25T03:07:10;11.10;93.21
67364;HTU21D;54250;45.572;38.086;2023-04-25T03:09:36;11.11;93.30
67364;HTU21D;54250;45.572;38.086;2023-04-25T03:12:03;11.11;93.30
67364;HTU21D;54250;45.572;38.086;2023-04-25T03:14:32;11.13;93.27
67364;HTU21D;54250;45.572;38.086;2023-04-25T03:16:58;11.14;93.26
67364;HTU21D;54250;45.572;38.086;2023-04-25T03:19:24;11.16;93.19
67364;HTU21D;54250;45.572;38.086;2023-04-25T03:21:50;11.22;93.17
67364;HTU21D;54250;45.572;38.086;2023-04-25T03:24:16;11.23;93.11
67364;HTU21D;54250;45.572;38.086;2023-04-25T03:26:43;11.26;93.04
67364;HTU21D;54250;45.572;38.086;2023-04-25T03:29:09;11.29;93.04
67364;HTU21D;54250;45.572;38.086;2023-04-25T03:31:36;11.30;92.92
67364;HTU21D;54250;45.572;38.086;2023-04-25T03:34:02;11.32;92.82
67364;HTU21D;54250;45.572;38.086;2023-04-25T03:36:29;11.36;92.79
67364;HTU21D;54250;45.572;38.086;2023-04-25T03:38:55;11.34;92.77
67364;HTU21D;54250;45.572;38.086;2023-04-25T03:41:21;11.37;92.75
67364;HTU21D;54250;45.572;38.086;2023-04-25T03:43:54;11.34;92.75
67364;HTU21D;54250;45.572;38.086;2023-04-25T03:46:21;11.34;92.75
67364;HTU21D;54250;45.572;38.086;2023-04-25T03:48:47;11.33;92.71
67364;HTU21D;54250;45.572;38.086;2023-04-25T03:51:20;11.32;92.71
67364;HTU21D;54250;45.572;38.086;2023-04-25T03:53:47;11.32;92.72
67364;HTU21D;54250;45.572;38.086;2023-04-25T03:56:19;11.33;92.69
67364;HTU21D;54250;45.572;38.086;2023-04-25T03:58:51;11.36;92.63
67364;HTU21D;54250;45.572;38.086;2023-04-25T04:01:19;11.37;92.57
67364;HTU21D;54250;45.572;38.086;2023-04-25T04:03:46;11.39;92.55
67364;HTU21D;54250;45.572;38.086;2023-04-25T04:06:12;11.40;92.50
67364;HTU21D;54250;45.572;38.086;2023-04-25T04:08:41;11.40;92.48
67364;HTU21D;54250;45.572;38.086;2023-04-25T04:11:09;11.42;92.44
67364;HTU21D;54250;45.572;38.086;2023-04-25T04:13:36;11.44;92.44
67364;HTU21D;54250;45.572;38.086;2023-04-25T04:16:02;11.46;92.52
67364;HTU21D;54250;45.572;38.086;2023-04-25T04:18:30;11.51;92.44
67364;HTU21D;54250;45.572;38.086;2023-04-25T04:20:56;11.54;92.41
67364;HTU21D;54250;45.572;38.086;2023-04-25T04:23:24;11.57;92.39
67364;HTU21D;54250;45.572;38.086;2023-04-25T04:25:53;11.59;92.34
67364;HTU21D;54250;45.572;38.086;2023-04-25T04:28:38;11.61;92.30
67364;HTU21D;54250;45.572;38.086;2023-04-25T04:31:24;11.63;92.32
67364;HTU21D;54250;45.572;38.086;2023-04-25T04:33:50;11.62;92.31
67364;HTU21D;54250;45.572;38.086;2023-04-25T04:36:17;11.62;92.37
67364;HTU21D;54250;45.572;38.086;2023-04-25T04:38:49;11.59;92.39
67364;HTU21D;54250;45.572;38.086;2023-04-25T04:41:24;11.59;92.40
67364;HTU21D;54250;45.572;38.086;2023-04-25T04:44:07;11.59;92.37
67364;HTU21D;54250;45.572;38.086;2023-04-25T04:46:52;11.57;92.34
67364;HTU21D;54250;45.572;38.086;2023-04-25T04:49:50;11.58;92.30
67364;HTU21D;54250;45.572;38.086;2023-04-25T04:52:39;11.56;92.27
67364;HTU21D;54250;45.572;38.086;2023-04-25T04:55:37;11.56;92.27
67364;HTU21D;54250;45.572;38.086;2023-04-25T04:58:17;11.58;92.24
67364;HTU21D;54250;45.572;38.086;2023-04-25T05:01:02;11.62;92.12
67364;HTU21D;54250;45.572;38.086;2023-04-25T05:03:33;11.64;92.11
67364;HTU21D;54250;45.572;38.086;2023-04-25T05:06:24;11.71;91.96
67364;HTU21D;54250;45.572;38.086;2023-04-25T05:09:15;11.77;91.82
67364;HTU21D;54250;45.572;38.086;2023-04-25T05:11:53;11.83;91.74
67364;HTU21D;54250;45.572;38.086;2023-04-25T05:14:45;11.83;91.79
67364;HTU21D;54250;45.572;38.086;2023-04-25T05:17:30;11.83;91.87
67364;HTU21D;54250;45.572;38.086;2023-04-25T05:20:22;11.83;91.91
67364;HTU21D;54250;45.572;38.086;2023-04-25T05:23:26;11.83;91.88
67364;HTU21D;54250;45.572;38.086;2023-04-25T05:25:59;11.90;91.81
67364;HTU21D;54250;45.572;38.086;2023-04-25T05:28:58;11.94;91.64
67364;HTU21D;54250;45.572;38.086;2023-04-25T05:31:53;11.98;91.58
67364;HTU21D;54250;45.572;38.086;2023-04-25T05:34:19;12.04;91.50
67364;HTU21D;54250;45.572;38.086;2023-04-25T05:36:58;12.10;91.42
67364;HTU21D;54250;45.572;38.086;2023-04-25T05:39:24;12.12;91.37
67364;HTU21D;54250;45.572;38.086;2023-04-25T05:42:03;12.12;91.38
67364;HTU21D;54250;45.572;38.086;2023-04-25T05:45:01;12.16;91.30
67364;HTU21D;54250;45.572;38.086;2023-04-25T05:47:50;12.22;91.21
67364;HTU21D;54250;45.572;38.086;2023-04-25T05:50:25;12.26;91.10
67364;HTU21D;54250;45.572;38.086;2023-04-25T05:52:58;12.25;91.08
67364;HTU21D;54250;45.572;38.086;2023-04-25T05:55:44;12.31;91.07
67364;HTU21D;54250;45.572;38.086;2023-04-25T05:58:22;12.35;90.98
67364;HTU21D;54250;45.572;38.086;2023-04-25T06:00:48;12.38;90.93
67364;HTU21D;54250;45.572;38.086;2023-04-25T06:03:14;12.42;90.96
67364;HTU21D;54250;45.572;38.086;2023-04-25T06:05:44;12.46;90.89
67364;HTU21D;54250;45.572;38.086;2023-04-25T06:08:10;12.49;90.90
67364;HTU21D;54250;45.572;38.086;2023-04-25T06:10:37;12.56;90.80
67364;HTU21D;54250;45.572;38.086;2023-04-25T06:13:04;12.61;90.74
67364;HTU21D;54250;45.572;38.086;2023-04-25T06:15:33;12.61;90.73
67364;HTU21D;54250;45.572;38.086;2023-04-25T06:18:00;12.64;90.69
67364;HTU21D;54250;45.572;38.086;2023-04-25T06:20:26;12.69;90.63
67364;HTU21D;54250;45.572;38.086;2023-04-25T06:22:56;12.67;90.58
67364;HTU21D;54250;45.572;38.086;2023-04-25T06:25:34;12.70;90.62
67364;HTU21D;54250;45.572;38.086;2023-04-25T06:28:01;12.76;90.53
67364;HTU21D;54250;45.572;38.086;2023-04-25T06:30:27;12.81;90.44
67364;HTU21D;54250;45.572;38.086;2023-04-25T06:32:58;12.96;90.18
67364;HTU21D;54250;45.572;38.086;2023-04-25T06:35:27;13.05;89.93
67364;HTU21D;54250;45.572;38.086;2023-04-25T06:37:55;13.02;89.99
67364;HTU21D;54250;45.572;38.086;2023-04-25T06:40:23;13.06;90.03
67364;HTU21D;54250;45.572;38.086;2023-04-25T06:42:49;13.09;89.93
67364;HTU21D;54250;45.572;38.086;2023-04-25T06:45:51;13.11;89.95
67364;HTU21D;54250;45.572;38.086;2023-04-25T06:48:18;13.09;89.96
67364;HTU21D;54250;45.572;38.086;2023-04-25T06:50:44;13.03;90.16
67364;HTU21D;54250;45.572;38.086;2023-04-25T06:53:11;13.03;90.18
67364;HTU21D;54250;45.572;38.086;2023-04-25T06:55:38;13.04;90.12
67364;HTU21D;54250;45.572;38.086;2023-04-25T06:58:17;13.10;89.96
67364;HTU21D;54250;45.572;38.086;2023-04-25T07:00:49;13.19;89.84
67364;HTU21D;54250;45.572;38.086;2023-04-25T07:03:17;13.32;89.58
67364;HTU21D;54250;45.572;38.086;2023-04-25T07:05:43;13.48;89.31
67364;HTU21D;54250;45.572;38.086;2023-04-25T07:08:11;13.55;89.16
67364;HTU21D;54250;45.572;38.086;2023-04-25T07:10:38;13.76;88.96
67364;HTU21D;54250;45.572;38.086;2023-04-25T07:13:04;13.96;88.60
67364;HTU21D;54250;45.572;38.086;2023-04-25T07:15:30;14.11;88.29
67364;HTU21D;54250;45.572;38.086;2023-04-25T07:17:58;14.24;88.24
67364;HTU21D;54250;45.572;38.086;2023-04-25T07:20:25;14.35;88.04
67364;HTU21D;54250;45.572;38.086;2023-04-25T07:22:51;14.40;87.99
67364;HTU21D;54250;45.572;38.086;2023-04-25T07:25:18;14.56;87.86
67364;HTU21D;54250;45.572;38.086;2023-04-25T07:27:45;14.69;87.63
67364;HTU21D;54250;45.572;38.086;2023-04-25T07:30:14;14.79;87.38
67364;HTU21D;54250;45.572;38.086;2023-04-25T07:32:40;14.80;87.43
67364;HTU21D;54250;45.572;38.086;2023-04-25T07:35:07;14.77;87.40
67364;HTU21D;54250;45.572;38.086;2023-04-25T07:37:34;14.65;87.77
67364;HTU21D;54250;45.572;38.086;2023-04-25T07:40:13;14.56;88.11
67364;HTU21D;54250;45.572;38.086;2023-04-25T07:42:49;14.50;88.12
67364;HTU21D;54250;45.572;38.086;2023-04-25T07:45:21;14.44;88.16
67364;HTU21D;54250;45.572;38.086;2023-04-25T07:47:47;14.47;88.18
67364;HTU21D;54250;45.572;38.086;2023-04-25T07:50:14;14.63;87.92
67364;HTU21D;54250;45.572;38.086;2023-04-25T07:52:40;14.80;87.31
67364;HTU21D;54250;45.572;38.086;2023-04-25T07:55:15;15.02;86.93
67364;HTU21D;54250;45.572;38.086;2023-04-25T07:57:55;15.24;86.40
67364;HTU21D;54250;45.572;38.086;2023-04-25T08:00:21;15.39;86.26
67364;HTU21D;54250;45.572;38.086;2023-04-25T08:02:57;15.67;85.83
67364;HTU21D;54250;45.572;38.086;2023-04-25T08:05:23;15.80;85.61
67364;HTU21D;54250;45.572;38.086;2023-04-25T08:07:58;15.97;85.35
67364;HTU21D;54250;45.572;38.086;2023-04-25T08:10:26;16.17;84.99
67364;HTU21D;54250;45.572;38.086;2023-04-25T08:12:52;16.29;84.74
67364;HTU21D;54250;45.572;38.086;2023-04-25T08:15:18;16.54;84.35
67364;HTU21D;54250;45.572;38.086;2023-04-25T08:17:44;16.79;83.61
67364;HTU21D;54250;45.572;38.086;2023-04-25T08:20:11;17.07;82.97
67364;HTU21D;54250;45.572;38.086;2023-04-25T08:22:37;17.30;81.74
67364;HTU21D;54250;45.572;38.086;2023-04-25T08:25:23;17.56;81.47
67364;HTU21D;54250;45.572;38.086;2023-04-25T08:27:50;18.08;80.50
67364;HTU21D;54250;45.572;38.086;2023-04-25T08:30:19;18.70;79.43
67364;HTU21D;54250;45.572;38.086;2023-04-25T08:32:46;19.21;77.99
67364;HTU21D;54250;45.572;38.086;2023-04-25T08:35:23;19.48;77.65
67364;HTU21D;54250;45.572;38.086;2023-04-25T08:37:49;19.81;76.92
67364;HTU21D;54250;45.572;38.086;2023-04-25T08:40:17;19.97;76.86
67364;HTU21D;54250;45.572;38.086;2023-04-25T08:43:06;20.01;76.49
67364;HTU21D;54250;45.572;38.086;2023-04-25T08:45:42;20.02;76.50
67364;HTU21D;54250;45.572;38.086;2023-04-25T08:48:17;20.18;75.74
67364;HTU21D;54250;45.572;38.086;2023-04-25T08:50:51;20.03;74.73
67364;HTU21D;54250;45.572;38.086;2023-04-25T08:53:26;19.73;75.32
67364;HTU21D;54250;45.572;38.086;2023-04-25T08:55:54;19.80;74.51
67364;HTU21D;54250;45.572;38.086;2023-04-25T08:58:21;19.79;74.19
67364;HTU21D;54250;45.572;38.086;2023-04-25T09:00:48;19.48;74.28
67364;HTU21D;54250;45.572;38.086;2023-04-25T09:03:17;19.31;74.61
67364;HTU21D;54250;45.572;38.086;2023-04-25T09:05:46;19.15;75.14
67364;HTU21D;54250;45.572;38.086;2023-04-25T09:08:14;19.15;75.34
67364;HTU21D;54250;45.572;38.086;2023-04-25T09:10:41;19.13;75.28
67364;HTU21D;54250;45.572;38.086;2023-04-25T09:13:13;19.16;74.89
67364;HTU21D;54250;45.572;38.086;2023-04-25T09:16:04;19.53;74.24
67364;HTU21D;54250;45.572;38.086;2023-04-25T09:19:02;19.87;73.89
67364;HTU21D;54250;45.572;38.086;2023-04-25T09:21:28;19.95;73.54
67364;HTU21D;54250;45.572;38.086;2023-04-25T09:23:56;19.62;73.77
67364;HTU21D;54250;45.572;38.086;2023-04-25T09:26:26;19.16;74.37
67364;HTU21D;54250;45.572;38.086;2023-04-25T09:29:05;18.84;74.67
67364;HTU21D;54250;45.572;38.086;2023-04-25T09:31:34;18.56;75.38
67364;HTU21D;54250;45.572;38.086;2023-04-25T09:34:02;18.34;75.35
67364;HTU21D;54250;45.572;38.086;2023-04-25T09:36:36;18.06;75.54
67364;HTU21D;54250;45.572;38.086;2023-04-25T09:39:18;17.94;75.89
67364;HTU21D;54250;45.572;38.086;2023-04-25T09:41:57;18.13;75.79
67364;HTU21D;54250;45.572;38.086;2023-04-25T09:44:25;18.26;75.44
67364;HTU21D;54250;45.572;38.086;2023-04-25T09:46:52;18.03;75.87
67364;HTU21D;54250;45.572;38.086;2023-04-25T09:49:22;17.85;76.16
67364;HTU21D;54250;45.572;38.086;2023-04-25T09:52:22;17.66;76.59
67364;HTU21D;54250;45.572;38.086;2023-04-25T09:55:27;17.60;76.66
67364;HTU21D;54250;45.572;38.086;2023-04-25T09:57:56;17.54;76.63
67364;HTU21D;54250;45.572;38.086;2023-04-25T10:00:26;17.54;76.53
67364;HTU21D;54250;45.572;38.086;2023-04-25T10:02:54;17.51;76.53
67364;HTU21D;54250;45.572;38.086;2023-04-25T10:05:41;17.53;76.57
67364;HTU21D;54250;45.572;38.086;2023-04-25T10:08:11;17.58;76.58
67364;HTU21D;54250;45.572;38.086;2023-04-25T10:10:40;17.60;76.60
67364;HTU21D;54250;45.572;38.086;2023-04-25T10:13:06;17.62;76.50
67364;HTU21D;54250;45.572;38.086;2023-04-25T10:15:35;17.64;76.55
67364;HTU21D;54250;45.572;38.086;2023-04-25T10:18:02;17.62;76.49
67364;HTU21D;54250;45.572;38.086;2023-04-25T10:20:29;17.59;76.65
67364;HTU21D;54250;45.572;38.086;2023-04-25T10:23:03;17.55;76.56
67364;HTU21D;54250;45.572;38.086;2023-04-25T10:25:31;17.41;76.86
67364;HTU21D;54250;45.572;38.086;2023-04-25T10:27:59;17.40;76.83
67364;HTU21D;54250;45.572;38.086;2023-04-25T10:30:26;17.48;76.59
67364;HTU21D;54250;45.572;38.086;2023-04-25T10:32:54;17.54;76.10
67364;HTU21D;54250;45.572;38.086;2023-04-25T10:35:27;17.59;76.08
67364;HTU21D;54250;45.572;38.086;2023-04-25T10:38:02;17.69;75.86
67364;HTU21D;54250;45.572;38.086;2023-04-25T10:40:29;17.82;75.71
67364;HTU21D;54250;45.572;38.086;2023-04-25T10:45:59;17.69;76.28
67364;HTU21D;54250;45.572;38.086;2023-04-25T10:48:30;17.69;76.51
67364;HTU21D;54250;45.572;38.086;2023-04-25T10:51:17;17.67;76.46
67364;HTU21D;54250;45.572;38.086;2023-04-25T10:53:45;17.75;76.36
67364;HTU21D;54250;45.572;38.086;2023-04-25T10:56:19;17.80;76.34
67364;HTU21D;54250;45.572;38.086;2023-04-25T10:58:47;17.89;75.98
67364;HTU21D;54250;45.572;38.086;2023-04-25T11:01:15;17.90;76.05
67364;HTU21D;54250;45.572;38.086;2023-04-25T11:03:47;18.03;75.92
67364;HTU21D;54250;45.572;38.086;2023-04-25T11:06:53;18.26;75.49
67364;HTU21D;54250;45.572;38.086;2023-04-25T11:09:24;18.53;74.87
67364;HTU21D;54250;45.572;38.086;2023-04-25T11:11:54;18.70;74.50
67364;HTU21D;54250;45.572;38.086;2023-04-25T11:14:21;18.73;74.02
67364;HTU21D;54250;45.572;38.086;2023-04-25T11:16:55;18.67;74.44
67364;HTU21D;54250;45.572;38.086;2023-04-25T11:19:22;18.71;74.63
67364;HTU21D;54250;45.572;38.086;2023-04-25T11:21:49;18.70;74.70
67364;HTU21D;54250;45.572;38.086;2023-04-25T11:24:19;18.79;74.64
67364;HTU21D;54250;45.572;38.086;2023-04-25T11:26:46;18.91;74.32
67364;HTU21D;54250;45.572;38.086;2023-04-25T11:29:15;18.96;74.27
67364;HTU21D;54250;45.572;38.086;2023-04-25T11:31:44;19.00;73.93
67364;HTU21D;54250;45.572;38.086;2023-04-25T11:34:11;19.03;73.89
67364;HTU21D;54250;45.572;38.086;2023-04-25T11:36:38;19.09;73.68
67364;HTU21D;54250;45.572;38.086;2023-04-25T11:39:05;19.09;73.43
67364;HTU21D;54250;45.572;38.086;2023-04-25T11:41:31;19.02;73.64
67364;HTU21D;54250;45.572;38.086;2023-04-25T11:43:57;18.92;73.37
67364;HTU21D;54250;45.572;38.086;2023-04-25T11:46:24;18.74;73.11
67364;HTU21D;54250;45.572;38.086;2023-04-25T11:48:51;18.64;73.36
67364;HTU21D;54250;45.572;38.086;2023-04-25T11:51:17;18.68;73.05
67364;HTU21D;54250;45.572;38.086;2023-04-25T11:53:44;18.64;72.80
67364;HTU21D;54250;45.572;38.086;2023-04-25T11:56:11;18.66;72.77
67364;HTU21D;54250;45.572;38.086;2023-04-25T11:59:01;18.76;72.57
67364;HTU21D;54250;45.572;38.086;2023-04-25T12:01:31;18.67;72.49
67364;HTU21D;54250;45.572;38.086;2023-04-25T12:04:09;18.66;72.61
67364;HTU21D;54250;45.572;38.086;2023-04-25T12:06:39;18.66;72.35
67364;HTU21D;54250;45.572;38.086;2023-04-25T12:09:08;18.47;72.37
67364;HTU21D;54250;45.572;38.086;2023-04-25T12:12:01;18.33;72.86
67364;HTU21D;54250;45.572;38.086;2023-04-25T12:14:30;18.32;72.63
67364;HTU21D;54250;45.572;38.086;2023-04-25T12:16:59;18.24;72.68
67364;HTU21D;54250;45.572;38.086;2023-04-25T12:19:26;18.28;72.79
67364;HTU21D;54250;45.572;38.086;2023-04-25T12:21:52;18.33;72.45
67364;HTU21D;54250;45.572;38.086;2023-04-25T12:24:24;18.33;72.45
67364;HTU21D;54250;45.572;38.086;2023-04-25T12:27:03;18.26;72.64
67364;HTU21D;54250;45.572;38.086;2023-04-25T12:29:32;18.15;72.58
67364;HTU21D;54250;45.572;38.086;2023-04-25T12:31:58;18.14;72.86
67364;HTU21D;54250;45.572;38.086;2023-04-25T12:34:25;18.11;72.54
67364;HTU21D;54250;45.572;38.086;2023-04-25T12:36:52;17.91;72.55
67364;HTU21D;54250;45.572;38.086;2023-04-25T12:39:20;17.78;72.77
67364;HTU21D;54250;45.572;38.086;2023-04-25T12:41:48;17.74;72.87
67364;HTU21D;54250;45.572;38.086;2023-04-25T12:44:14;17.73;72.97
67364;HTU21D;54250;45.572;38.086;2023-04-25T12:46:41;17.73;73.15
67364;HTU21D;54250;45.572;38.086;2023-04-25T12:49:08;17.73;73.11
67364;HTU21D;54250;45.572;38.086;2023-04-25T12:51:35;17.70;73.40
67364;HTU21D;54250;45.572;38.086;2023-04-25T12:54:02;17.70;73.46
67364;HTU21D;54250;45.572;38.086;2023-04-25T12:56:29;17.77;73.35
67364;HTU21D;54250;45.572;38.086;2023-04-25T12:58:56;17.76;73.30
67364;HTU21D;54250;45.572;38.086;2023-04-25T13:01:22;17.73;73.34
67364;HTU21D;54250;45.572;38.086;2023-04-25T13:03:49;17.64;73.32
67364;HTU21D;54250;45.572;38.086;2023-04-25T13:06:17;17.60;73.57
67364;HTU21D;54250;45.572;38.086;2023-04-25T13:08:43;17.66;73.56
67364;HTU21D;54250;45.572;38.086;2023-04-25T13:11:10;17.72;73.64
67364;HTU21D;54250;45.572;38.086;2023-04-25T13:13:37;17.78;73.39
67364;HTU21D;54250;45.572;38.086;2023-04-25T13:16:04;17.65;73.51
67364;HTU21D;54250;45.572;38.086;2023-04-25T13:18:31;17.41;73.69
67364;HTU21D;54250;45.572;38.086;2023-04-25T13:20:58;17.23;73.96
67364;HTU21D;54250;45.572;38.086;2023-04-25T13:23:26;17.05;74.10
67364;HTU21D;54250;45.572;38.086;2023-04-25T13:25:53;16.91;74.19
67364;HTU21D;54250;45.572;38.086;2023-04-25T13:28:21;16.90;74.19
67364;HTU21D;54250;45.572;38.086;2023-04-25T13:30:47;17.00;73.98
67364;HTU21D;54250;45.572;38.086;2023-04-25T13:33:14;17.04;73.80
67364;HTU21D;54250;45.572;38.086;2023-04-25T13:35:41;17.02;73.87
67364;HTU21D;54250;45.572;38.086;2023-04-25T13:38:07;16.98;73.86
67364;HTU21D;54250;45.572;38.086;2023-04-25T13:40:34;16.91;73.79
67364;HTU21D;54250;45.572;38.086;2023-04-25T13:43:01;16.80;73.94
67364;HTU21D;54250;45.572;38.086;2023-04-25T13:45:27;16.73;74.10
67364;HTU21D;54250;45.572;38.086;2023-04-25T13:47:53;16.65;74.18
67364;HTU21D;54250;45.572;38.086;2023-04-25T13:50:19;16.64;74.39
67364;HTU21D;54250;45.572;38.086;2023-04-25T13:52:46;16.64;74.39
67364;HTU21D;54250;45.572;38.086;2023-04-25T13:55:12;16.62;74.38
67364;HTU21D;54250;45.572;38.086;2023-04-25T13:57:38;16.57;74.38
67364;HTU21D;54250;45.572;38.086;2023-04-25T14:00:05;16.50;74.31
67364;HTU21D;54250;45.572;38.086;2023-04-25T14:02:37;16.43;74.51
67364;HTU21D;54250;45.572;38.086;2023-04-25T14:05:04;16.33;74.51
67364;HTU21D;54250;45.572;38.086;2023-04-25T14:07:31;16.18;74.71
67364;HTU21D;54250;45.572;38.086;2023-04-25T14:09:57;16.08;74.83
67364;HTU21D;54250;45.572;38.086;2023-04-25T14:12:24;16.05;74.89
67364;HTU21D;54250;45.572;38.086;2023-04-25T14:14:50;16.04;74.95
67364;HTU21D;54250;45.572;38.086;2023-04-25T14:17:19;16.02;74.99
67364;HTU21D;54250;45.572;38.086;2023-04-25T14:19:45;15.99;75.08
67364;HTU21D;54250;45.572;38.086;2023-04-25T14:22:11;15.93;75.09
67364;HTU21D;54250;45.572;38.086;2023-04-25T14:24:37;15.90;75.02
67364;HTU21D;54250;45.572;38.086;2023-04-25T14:27:04;15.85;74.95
67364;HTU21D;54250;45.572;38.086;2023-04-25T14:29:30;15.81;74.90
67364;HTU21D;54250;45.572;38.086;2023-04-25T14:31:57;15.74;75.05
67364;HTU21D;54250;45.572;38.086;2023-04-25T14:34:27;15.67;75.01
67364;HTU21D;54250;45.572;38.086;2023-04-25T14:36:53;15.60;74.83
67364;HTU21D;54250;45.572;38.086;2023-04-25T14:39:19;15.53;74.81
67364;HTU21D;54250;45.572;38.086;2023-04-25T14:41:45;15.44;74.73
67364;HTU21D;54250;45.572;38.086;2023-04-25T14:44:11;15.36;74.88
67364;HTU21D;54250;45.572;38.086;2023-04-25T14:46:37;15.30;75.05
67364;HTU21D;54250;45.572;38.086;2023-04-25T14:49:04;15.23;75.21
67364;HTU21D;54250;45.572;38.086;2023-04-25T14:51:30;15.13;75.39
67364;HTU21D;54250;45.572;38.086;2023-04-25T14:53:56;15.09;75.30
67364;HTU21D;54250;45.572;38.086;2023-04-25T14:56:23;15.02;75.34
67364;HTU21D;54250;45.572;38.086;2023-04-25T14:58:49;14.94;75.49
67364;HTU21D;54250;45.572;38.086;2023-04-25T15:01:16;14.87;75.57
67364;HTU21D;54250;45.572;38.086;2023-04-25T15:03:42;14.80;75.59
67364;HTU21D;54250;45.572;38.086;2023-04-25T15:06:08;14.73;75.63
67364;HTU21D;54250;45.572;38.086;2023-04-25T15:08:34;14.64;75.66
67364;HTU21D;54250;45.572;38.086;2023-04-25T15:11:01;14.56;75.80
67364;HTU21D;54250;45.572;38.086;2023-04-25T15:13:28;14.44;76.03
67364;HTU21D;54250;45.572;38.086;2023-04-25T15:15:54;14.36;76.23
67364;HTU21D;54250;45.572;38.086;2023-04-25T15:18:21;14.27;76.43
67364;HTU21D;54250;45.572;38.086;2023-04-25T15:20:52;14.17;76.63
67364;HTU21D;54250;45.572;38.086;2023-04-25T15:23:19;14.08;76.77
67364;HTU21D;54250;45.572;38.086;2023-04-25T15:25:46;14.01;76.78